Time;durP1;ratioP1;P1;durP2;ratioP2;P2;SDS_P1;SDS_P2;PMS_P1;PMS_P2;Temp;Humidity;BMP_temperature;BMP_pressure;BME280_temperature;BME280_humidity;BME280_pressure;Samples;Min_cycle;Max_cycle;Signal;HPM_P1;HPM_P2
2023/01/07 00:02:19;;;;;;;;;;;6.40;99.90;;;;;;4963782;29;20034;-82
2023/01/07 00:04:45;;;;;;;30.08;12.38;;;6.50;99.90;;;;;;4962691;29;19906;-81
2023/01/07 00:07:10;;;;;;;28.25;12.52;;;6.50;99.90;;;;;;4965679;29;20015;-82
2023/01/07 00:09:36;;;;;;;;;;;6.60;99.90;;;;;;4982753;29;20019;-82
2023/01/07 00:12:02;;;;;;;23.65;11.82;;;6.50;99.90;;;;;;4965331;28;19907;-82
2023/01/07 02:26:31;;;;;;;20.38;7.78;;;6.50;99.90;;;;;;5705394;23;19946;-81
2023/01/07 02:28:59;;;;;;;17.77;8.15;;;6.50;99.90;;;;;;4942896;29;20039;-81
2023/01/07 02:31:25;;;;;;;20.67;7.43;;;6.50;99.90;;;;;;4958671;29;20059;-82
2023/01/07 02:34:03;;;;;;;;;;;6.50;99.90;;;;;;4944321;29;20016;-82
2023/01/07 02:36:29;;;;;;;20.50;8.05;;;6.40;99.90;;;;;;4961025;29;19894;-83
2023/01/07 02:39:03;;;;;;;;;;;6.50;99.90;;;;;;4961177;28;20027;-83
2023/01/07 02:42:04;;;;;;;15.82;8.90;;;6.60;99.90;;;;;;4944492;29;19895;-82
2023/01/07 02:44:38;;;;;;;21.52;8.75;;;6.50;99.90;;;;;;4884645;29;20045;-82
2023/01/07 02:47:22;;;;;;;16.23;8.82;;;6.50;99.90;;;;;;4949345;29;20031;-83
2023/01/07 02:49:48;;;;;;;32.25;15.38;;;6.50;99.90;;;;;;4959681;29;20074;-83
2023/01/07 02:52:26;;;;;;;30.02;16.10;;;6.40;99.90;;;;;;4961099;28;20363;-83
2023/01/07 02:55:27;;;;;;;35.65;15.48;;;6.30;99.90;;;;;;4960894;28;20050;-82
2023/01/07 02:58:25;;;;;;;28.00;11.95;;;6.30;99.90;;;;;;4941435;28;20052;-82
2023/01/07 03:01:19;;;;;;;24.45;11.85;;;6.30;99.90;;;;;;4964521;28;20047;-81
2023/01/07 03:04:12;;;;;;;28.33;11.52;;;6.20;99.90;;;;;;4964985;28;20097;-82
2023/01/07 03:06:46;;;;;;;28.17;12.98;;;6.40;99.90;;;;;;4963538;28;20036;-81
2023/01/07 03:09:21;;;;;;;32.25;13.93;;;6.10;99.90;;;;;;4963131;29;20008;-82
2023/01/07 03:11:50;;;;;;;27.38;14.05;;;6.30;99.90;;;;;;4964150;28;20129;-83
2023/01/07 03:14:18;;;;;;;29.13;12.38;;;6.10;99.90;;;;;;4963771;29;20012;-82
2023/01/07 03:16:53;;;;;;;29.05;13.68;;;6.20;99.90;;;;;;4964144;28;20022;-82
2023/01/07 03:19:24;;;;;;;26.23;13.18;;;6.30;99.90;;;;;;4964177;28;20028;-82
2023/01/07 03:21:51;;;;;;;26.38;12.93;;;6.20;99.90;;;;;;4948007;29;20031;-82
2023/01/07 03:24:19;;;;;;;31.92;13.27;;;6.00;99.90;;;;;;4948050;29;20055;-82
2023/01/07 03:26:48;;;;;;;34.42;13.95;;;6.00;99.90;;;;;;4942702;29;20067;-83
2023/01/07 03:29:15;;;;;;;29.77;14.98;;;5.90;99.90;;;;;;4944886;29;20039;-83
2023/01/07 03:32:03;;;;;;;34.60;16.98;;;5.90;99.90;;;;;;4945514;29;20028;-82
2023/01/07 03:34:31;;;;;;;38.97;18.55;;;5.70;99.90;;;;;;4945065;29;20142;-83
2023/01/07 03:37:04;;;;;;;42.17;18.70;;;5.60;99.90;;;;;;4944690;29;20009;-83
2023/01/07 03:39:32;;;;;;;33.33;17.45;;;5.60;99.90;;;;;;4944894;29;20027;-85
2023/01/07 03:44:43;;;;;;;32.72;15.45;;;5.50;99.90;;;;;;4945161;29;20070;-82
2023/01/07 03:47:08;;;;;;;;;;;5.40;99.90;;;;;;4945189;29;20012;-83
2023/01/07 03:49:35;;;;;;;33.17;18.38;;;5.30;99.90;;;;;;4945072;29;19904;-84
2023/01/07 03:52:02;;;;;;;40.13;19.20;;;5.30;99.90;;;;;;4945022;29;20023;-82
2023/01/07 03:54:28;;;;;;;35.38;17.20;;;5.30;99.90;;;;;;4944997;29;20020;-84
2023/01/07 03:56:53;;;;;;;;;;;5.40;99.90;;;;;;4944563;29;20021;-82
2023/01/07 03:59:19;;;;;;;30.02;11.88;;;5.30;99.90;;;;;;4944642;29;19895;-82
2023/01/07 04:01:45;;;;;;;;;;;5.20;99.90;;;;;;4944454;29;20036;-84
2023/01/07 04:04:11;;;;;;;21.42;9.68;;;5.30;99.90;;;;;;4944632;29;19919;-83
2023/01/07 04:06:36;;;;;;;;;;;5.30;99.90;;;;;;4944784;29;20008;-82
2023/01/07 04:09:02;;;;;;;27.42;10.55;;;5.20;99.90;;;;;;4944021;29;19919;-83
2023/01/07 04:11:28;;;;;;;21.02;11.32;;;5.10;99.90;;;;;;4943971;29;20176;-82
2023/01/07 13:44:46;;;;;;;54.25;30.25;;;7.50;99.90;;;;;;6057861;23;20026;31
2023/01/07 13:47:16;;;;;;;58.30;34.53;;;7.40;99.90;;;;;;4862174;29;20097;-83
2023/01/07 13:49:42;;;;;;;48.20;27.92;;;7.30;99.90;;;;;;4848823;29;20027;-84
2023/01/07 13:52:13;;;;;;;;;;;7.10;99.90;;;;;;4849087;29;20042;-82
2023/01/07 13:54:49;;;;;;;54.33;30.95;;;7.10;99.90;;;;;;4849155;29;19904;-83
2023/01/07 13:57:30;;;;;;;61.92;34.47;;;7.00;99.90;;;;;;4848969;29;20022;-83
2023/01/07 13:59:58;;;;;;;61.20;35.85;;;6.90;99.90;;;;;;4848591;29;20034;-83
2023/01/07 14:02:28;;;;;;;47.28;27.65;;;6.90;99.90;;;;;;4862781;29;20031;-83
2023/01/07 14:05:21;;;;;;;63.30;37.13;;;6.90;99.90;;;;;;4832583;29;20038;-82
2023/01/07 14:07:59;;;;;;;62.42;35.70;;;6.80;99.90;;;;;;4833077;29;20029;-82
2023/01/07 14:10:35;;;;;;;62.33;36.97;;;6.60;99.90;;;;;;4847954;29;20015;-83
2023/01/07 14:13:16;;;;;;;64.45;34.15;;;6.50;99.90;;;;;;4831987;29;20049;-83
2023/01/07 14:16:11;;;;;;;58.75;33.42;;;6.50;99.90;;;;;;4862794;29;20133;-83
2023/01/07 14:18:50;;;;;;;59.47;33.85;;;6.40;99.90;;;;;;4843786;29;20031;-84
2023/01/07 14:21:16;;;;;;;60.65;35.20;;;6.30;99.90;;;;;;4831497;29;20030;-84
2023/01/07 14:23:42;;;;;;;;;;;6.20;99.90;;;;;;4847758;29;20043;-84
2023/01/07 14:26:40;;;;;;;67.13;35.58;;;6.20;99.90;;;;;;4846826;29;19987;-84
2023/01/07 14:29:30;;;;;;;69.28;36.38;;;6.00;99.90;;;;;;4848808;29;20034;-84
2023/01/07 14:32:44;;;;;;;71.28;40.70;;;5.90;99.90;;;;;;4848765;29;20025;-83
2023/01/07 14:35:10;;;;;;;67.32;36.45;;;6.00;99.90;;;;;;4833003;29;20081;-84
2023/01/07 14:37:36;;;;;;;;;;;6.00;99.90;;;;;;4849460;29;20022;-83
2023/01/07 14:40:24;;;;;;;65.80;35.72;;;5.90;99.90;;;;;;4863416;29;19968;-83
2023/01/07 14:42:53;;;;;;;61.40;34.78;;;5.90;99.90;;;;;;4863337;29;20179;-84
2023/01/07 14:45:38;;;;;;;67.57;38.30;;;6.00;99.90;;;;;;4842260;29;20081;-83
2023/01/07 14:48:07;;;;;;;104.20;53.60;;;5.70;99.90;;;;;;4900618;29;20040;-84
2023/01/07 14:51:00;;;;;;;84.55;48.72;;;5.70;99.90;;;;;;4885311;29;20025;-81
2023/01/07 14:53:38;;;;;;;75.63;41.17;;;5.70;99.90;;;;;;4900379;29;20030;-84
2023/01/07 14:56:12;;;;;;;84.70;47.05;;;5.80;99.90;;;;;;4900415;29;20021;-84
2023/01/07 14:58:52;;;;;;;78.00;40.95;;;5.80;99.90;;;;;;4885358;29;20095;-84
2023/01/07 15:01:42;;;;;;;84.78;49.58;;;5.90;99.90;;;;;;4900243;29;20018;-83
2023/01/07 17:28:18;;;;;;;78.75;39.22;;;5.50;99.90;;;;;;5994158;23;20030;-82
2023/01/07 17:30:49;;;;;;;88.25;44.38;;;5.60;99.90;;;;;;4938374;29;20062;-80
2023/01/07 17:33:16;;;;;;;73.28;38.45;;;5.50;99.90;;;;;;4924334;29;20020;-82
2023/01/07 17:35:46;;;;;;;75.45;39.22;;;5.50;99.90;;;;;;4923681;29;20036;-83
2023/01/07 17:38:13;;;;;;;68.88;36.38;;;5.40;99.90;;;;;;4924013;29;20013;-83
2023/01/07 17:40:40;;;;;;;79.13;37.95;;;5.40;99.90;;;;;;4923781;29;20048;-83
2023/01/07 17:43:32;;;;;;;79.82;37.72;;;5.50;99.90;;;;;;4907404;29;20039;-83
2023/01/07 17:46:02;;;;;;;68.28;35.38;;;5.30;99.90;;;;;;4922922;29;20029;-83
2023/01/07 17:48:28;;;;;;;73.45;38.35;;;5.50;99.90;;;;;;4923540;29;20023;-82
2023/01/07 17:50:57;;;;;;;;;;;5.50;99.90;;;;;;4923304;29;20024;-84
2023/01/07 17:53:28;;;;;;;75.35;36.97;;;5.40;99.90;;;;;;4923549;29;19955;-82
2023/01/07 17:55:54;;;;;;;72.93;36.88;;;5.40;99.90;;;;;;4923339;29;20076;-83
2023/01/07 17:58:33;;;;;;;;;;;5.40;99.90;;;;;;4924075;29;20004;-82
2023/01/07 18:01:04;;;;;;;70.82;35.42;;;5.30;99.90;;;;;;4922632;29;19915;-83
2023/01/07 18:03:30;;;;;;;62.58;31.45;;;5.60;99.90;;;;;;4938552;29;20023;-82
2023/01/07 18:05:56;;;;;;;;;;;5.50;99.90;;;;;;4923628;29;20056;-84
2023/01/07 18:08:22;;;;;;;71.72;34.55;;;5.40;99.90;;;;;;4923332;29;19947;-83
2023/01/07 18:13:32;;;;;;;68.38;34.65;;;5.50;99.90;;;;;;4923282;29;19967;-84
2023/01/07 18:15:57;;;;;;;;;;;5.50;99.90;;;;;;4923477;29;20025;-84
2023/01/07 18:18:24;;;;;;;66.65;35.15;;;5.50;99.90;;;;;;4923403;29;19903;-84
2023/01/07 18:20:52;;;;;;;67.80;35.53;;;5.40;99.90;;;;;;4937957;29;20037;-84
2023/01/07 18:23:19;;;;;;;79.78;41.75;;;5.50;99.90;;;;;;4922871;29;20029;-83
2023/01/07 18:25:45;;;;;;;73.40;40.35;;;5.60;99.90;;;;;;4938479;29;20029;-83
2023/01/07 18:28:11;;;;;;;64.40;34.78;;;5.50;99.90;;;;;;4923104;29;20096;-84
2023/01/07 18:30:37;;;;;;;;;;;5.60;99.90;;;;;;4937749;29;20086;-84
2023/01/07 18:33:08;;;;;;;68.00;32.97;;;5.60;99.90;;;;;;4922926;29;19899;-83
2023/01/07 18:35:34;;;;;;;62.22;31.85;;;5.70;99.90;;;;;;4922229;29;20013;-83
2023/01/07 18:38:01;;;;;;;73.18;34.80;;;5.70;99.90;;;;;;4923139;29;20049;-82
2023/01/07 18:40:27;;;;;;;62.83;32.42;;;5.70;99.90;;;;;;4921576;29;20024;-84
2023/01/07 18:42:53;;;;;;;67.15;33.58;;;5.70;99.90;;;;;;4921777;29;20020;-84
2023/01/07 18:45:19;;;;;;;57.25;29.67;;;5.80;99.90;;;;;;4920618;29;20032;-84
2023/01/07 18:47:45;;;;;;;;;;;5.80;99.90;;;;;;4921912;29;20068;-83
2023/01/07 18:50:12;;;;;;;66.63;32.15;;;5.80;99.90;;;;;;4921489;29;19911;-84
2023/01/07 18:52:39;;;;;;;58.30;30.08;;;5.90;99.90;;;;;;4922615;29;20017;-84
2023/01/07 18:55:06;;;;;;;57.35;29.95;;;5.80;99.90;;;;;;4922112;29;20016;-85
2023/01/07 18:57:32;;;;;;;57.50;30.10;;;5.90;99.90;;;;;;4922043;29;20029;-83
2023/01/07 18:59:58;;;;;;;;;;;5.90;99.90;;;;;;4920991;29;20064;-84
2023/01/07 19:02:24;;;;;;;72.30;30.92;;;5.80;99.90;;;;;;4921368;29;19955;-83
2023/01/07 19:04:49;;;;;;;;;;;5.90;99.90;;;;;;4922702;29;20032;-83
2023/01/07 19:07:16;;;;;;;59.15;29.10;;;5.90;99.90;;;;;;4922290;29;19896;-81
2023/01/07 19:09:43;;;;;;;63.80;30.98;;;5.90;99.90;;;;;;4922917;29;20012;-83
2023/01/07 19:12:10;;;;;;;60.17;31.25;;;6.00;99.90;;;;;;4922962;29;20039;-84
2023/01/07 19:14:39;;;;;;;70.50;33.88;;;6.00;99.90;;;;;;4922428;29;20020;-83
2023/01/07 19:17:09;;;;;;;71.82;31.83;;;5.90;99.90;;;;;;4922737;29;20088;-83
2023/01/07 19:19:35;;;;;;;62.35;32.72;;;5.90;99.90;;;;;;4922350;29;20041;-83
2023/01/07 19:22:01;;;;;;;;;;;5.90;99.90;;;;;;4922989;29;20020;-82
2023/01/07 19:24:27;;;;;;;65.18;29.98;;;6.00;99.90;;;;;;4922130;29;19928;-85
2023/01/07 19:26:52;;;;;;;;;;;6.00;99.90;;;;;;4922753;29;20009;-83
2023/01/07 19:29:19;;;;;;;60.38;29.98;;;5.90;99.90;;;;;;4928889;29;19907;-82
2023/01/07 19:31:45;;;;;;;60.95;30.90;;;6.00;99.90;;;;;;4941397;29;20055;-83
2023/01/07 19:34:12;;;;;;;60.30;29.48;;;6.10;99.90;;;;;;4941624;29;20012;-84
2023/01/07 19:36:45;;;;;;;64.40;31.08;;;6.00;99.90;;;;;;4941320;29;20036;-84
2023/01/07 19:39:21;;;;;;;65.85;33.10;;;6.00;99.90;;;;;;4925217;29;20057;-84
2023/01/07 19:41:47;;;;;;;61.47;30.42;;;6.00;99.90;;;;;;4941005;29;20084;-84
2023/01/07 19:44:14;;;;;;;55.00;28.60;;;6.00;99.90;;;;;;4944904;29;20036;-81
2023/01/07 19:46:41;;;;;;;56.60;28.10;;;6.00;99.90;;;;;;4944805;29;20024;-83
2023/01/07 19:49:08;;;;;;;58.38;28.80;;;5.90;99.90;;;;;;4929008;29;20044;-83
2023/01/07 19:51:35;;;;;;;58.35;29.70;;;6.00;99.90;;;;;;4944849;29;20034;-83
2023/01/07 19:54:02;;;;;;;55.10;29.60;;;6.00;99.90;;;;;;4944641;29;20028;-83
2023/01/07 19:56:29;;;;;;;55.88;28.58;;;6.00;99.90;;;;;;4944748;29;20009;-83
2023/01/07 19:58:56;;;;;;;56.17;29.35;;;6.00;99.90;;;;;;4928225;29;20019;-84
2023/01/07 20:01:25;;;;;;;47.70;24.70;;;6.00;99.90;;;;;;4944514;29;20040;-83
2023/01/07 20:03:52;;;;;;;50.80;26.48;;;6.00;99.90;;;;;;4928208;29;20035;-83
2023/01/07 20:06:21;;;;;;;55.22;27.83;;;5.90;99.90;;;;;;4944054;29;20048;-84
2023/01/07 20:08:47;;;;;;;52.30;24.60;;;5.90;99.90;;;;;;4945105;29;20044;-83
2023/01/07 20:11:13;;;;;;;44.75;23.88;;;6.00;99.90;;;;;;4944891;29;20052;-82
2023/01/07 20:13:39;;;;;;;;;;;6.00;99.90;;;;;;4945610;29;20027;-80
2023/01/07 20:16:13;;;;;;;45.23;21.77;;;6.00;99.90;;;;;;4944816;29;19939;-84
2023/01/07 20:18:44;;;;;;;37.60;21.48;;;6.00;99.90;;;;;;4928287;29;20016;-83
2023/01/07 20:21:11;;;;;;;39.30;21.13;;;6.00;99.90;;;;;;4944612;29;20036;-82
2023/01/07 20:23:39;;;;;;;43.90;22.00;;;6.00;99.90;;;;;;4944478;29;20027;-84
2023/01/07 20:26:07;;;;;;;43.58;20.88;;;6.20;99.90;;;;;;4927517;29;20103;-84
2023/01/07 20:28:34;;;;;;;49.17;22.05;;;6.20;99.90;;;;;;4944088;29;20043;-82
2023/01/07 20:31:04;;;;;;;47.75;22.95;;;6.30;99.90;;;;;;4944031;29;20040;-84
2023/01/07 20:33:30;;;;;;;44.03;19.80;;;6.20;99.90;;;;;;4927948;29;20028;-85
2023/01/07 20:36:03;;;;;;;;;;;6.20;99.90;;;;;;4928454;29;20026;-84
2023/01/07 20:38:29;;;;;;;45.83;20.90;;;6.20;99.90;;;;;;4943924;29;19935;-84
2023/01/07 20:40:55;;;;;;;;;;;6.10;99.90;;;;;;4944366;29;20023;-83
2023/01/07 20:43:21;;;;;;;45.88;21.58;;;6.20;99.90;;;;;;4944087;29;19926;-84
2023/01/07 20:45:46;;;;;;;;;;;6.30;99.90;;;;;;4944388;29;20024;-85
2023/01/07 20:48:14;;;;;;;42.35;21.77;;;6.10;99.90;;;;;;4943571;29;19921;-83
2023/01/07 20:50:42;;;;;;;49.60;22.63;;;6.20;99.90;;;;;;4927290;29;20036;-83
2023/01/07 20:53:09;;;;;;;48.10;23.27;;;6.10;99.90;;;;;;4926893;29;20009;-83
2023/01/07 20:55:35;;;;;;;47.97;24.60;;;6.20;99.90;;;;;;4927493;29;20021;-82
2023/01/07 20:58:01;;;;;;;;;;;6.10;99.90;;;;;;4927522;29;20008;-84
2023/01/07 21:00:27;;;;;;;45.95;21.65;;;6.20;99.90;;;;;;4943401;29;19919;-84
2023/01/07 21:02:52;;;;;;;;;;;6.30;99.90;;;;;;4943957;29;20032;-82
2023/01/07 21:05:20;;;;;;;44.63;21.35;;;6.30;99.90;;;;;;4926754;29;19935;-83
2023/01/07 21:07:48;;;;;;;50.47;23.88;;;6.20;99.90;;;;;;4926549;29;20032;-83
2023/01/07 21:10:17;;;;;;;43.15;21.95;;;6.20;99.90;;;;;;4943536;29;20035;-85
2023/01/07 21:12:44;;;;;;;51.50;23.55;;;6.30;99.90;;;;;;4943799;29;20048;-84
2023/01/07 21:15:12;;;;;;;47.38;23.13;;;6.30;99.90;;;;;;4943745;29;20040;-84
2023/01/07 21:17:41;;;;;;;51.17;22.65;;;6.30;99.90;;;;;;4927140;29;20040;-82
2023/01/07 21:20:12;;;;;;;47.60;21.63;;;6.30;99.90;;;;;;4943157;29;20052;-84
2023/01/07 21:22:38;;;;;;;45.20;22.55;;;6.30;99.90;;;;;;4926972;29;20088;-83
2023/01/07 21:25:04;;;;;;;;;;;6.40;99.90;;;;;;4927099;29;20077;-84
2023/01/07 21:27:30;;;;;;;51.70;22.30;;;6.50;99.90;;;;;;4942889;29;19902;-84
2023/01/07 21:29:56;;;;;;;;;;;6.30;99.90;;;;;;4927050;29;20052;-83
2023/01/07 21:32:22;;;;;;;52.00;23.83;;;6.30;99.90;;;;;;4926587;29;19903;-84
2023/01/07 21:34:48;;;;;;;;;;;6.30;99.90;;;;;;4943676;29;20043;-83
2023/01/07 21:37:14;;;;;;;49.10;22.90;;;6.30;99.90;;;;;;4943534;29;19915;-83
2023/01/07 21:39:39;;;;;;;;;;;6.20;99.90;;;;;;4943759;29;20017;-83
2023/01/07 21:42:05;;;;;;;43.20;21.42;;;6.40;99.90;;;;;;4942708;29;19919;-83
2023/01/07 21:44:32;;;;;;;;;;;6.20;99.90;;;;;;4943212;29;20091;-85
2023/01/07 21:46:58;;;;;;;43.83;20.60;;;6.40;99.90;;;;;;4942775;29;19895;-84
2023/01/07 21:49:24;;;;;;;;;;;6.30;99.90;;;;;;4926859;29;20034;-84
2023/01/07 21:51:49;;;;;;;50.22;23.98;;;6.20;99.90;;;;;;4926572;29;19918;-84
2023/01/07 21:54:15;;;;;;;;;;;6.30;99.90;;;;;;4943131;29;20023;-83
2023/01/07 21:56:41;;;;;;;79.20;36.15;;;6.30;99.90;;;;;;4926322;29;19918;-84
2023/01/07 21:59:08;;;;;;;;;;;6.30;99.90;;;;;;4943257;29;20013;-84
2023/01/07 22:01:34;;;;;;;72.68;35.60;;;6.30;99.90;;;;;;4942405;29;19918;-83
2023/01/07 22:04:01;;;;;;;56.15;23.70;;;6.40;99.90;;;;;;4942486;29;20085;-82
2023/01/07 22:06:32;;;;;;;48.33;22.70;;;6.30;99.90;;;;;;4925366;29;20008;-83
2023/01/07 22:09:02;;;;;;;45.13;22.05;;;6.40;99.90;;;;;;4921678;29;20027;-82
2023/01/07 22:11:28;;;;;;;57.20;27.10;;;6.30;99.90;;;;;;4942220;29;20004;-83
2023/01/07 22:13:56;;;;;;;40.97;20.25;;;6.20;99.90;;;;;;4926296;29;20048;-83
2023/01/07 22:16:24;;;;;;;42.05;20.88;;;6.30;99.90;;;;;;4926029;29;20012;-83
2023/01/07 22:18:49;;;;;;;39.90;20.27;;;6.30;99.90;;;;;;4925541;29;20040;-83
2023/01/07 22:21:16;;;;;;;;;;;6.40;99.90;;;;;;4942932;29;20039;-84
2023/01/07 22:23:46;;;;;;;39.13;18.83;;;6.40;99.90;;;;;;4942341;29;19926;-82
2023/01/07 22:26:13;;;;;;;38.45;19.33;;;6.40;99.90;;;;;;4925713;29;20019;-82
2023/01/07 22:28:40;;;;;;;43.15;20.58;;;6.40;99.90;;;;;;4941525;29;20023;-83
2023/01/07 22:31:20;;;;;;;41.45;20.33;;;6.30;99.90;;;;;;4926443;29;20017;-82
2023/01/07 22:33:46;;;;;;;44.75;19.33;;;6.40;99.90;;;;;;4926204;29;20020;-84
2023/01/07 22:36:14;;;;;;;;;;;6.40;99.90;;;;;;4943132;29;20004;-82
2023/01/07 22:38:40;;;;;;;34.58;17.45;;;6.30;99.90;;;;;;4926553;29;19895;-80
2023/01/07 22:41:07;;;;;;;;;;;6.30;99.90;;;;;;4943121;29;20044;-81
2023/01/07 22:43:33;;;;;;;37.22;17.30;;;6.30;99.90;;;;;;4942692;29;19909;-81
2023/01/07 22:46:10;;;;;;;38.88;17.38;;;6.40;99.90;;;;;;4926405;29;20040;-84
2023/01/07 22:48:36;;;;;;;;;;;6.50;99.90;;;;;;4942999;29;20016;-80
2023/01/07 22:51:08;;;;;;;36.92;17.42;;;6.30;99.90;;;;;;4942654;29;19903;-81
2023/01/07 22:53:34;;;;;;;36.05;18.50;;;6.30;99.90;;;;;;4926301;29;20044;-80
2023/01/07 22:56:01;;;;;;;47.25;21.65;;;6.30;99.90;;;;;;4942539;29;20043;-81
